Time;durP1;ratioP1;P1;durP2;ratioP2;P2;SDS_P1;SDS_P2;PMS_P1;PMS_P2;Temp;Humidity;BMP_temperature;BMP_pressure;BME280_temperature;BME280_humidity;BME280_pressure;Samples;Min_cycle;Max_cycle;Signal;HPM_P1;HPM_P2
2022/12/11 00:01:27;;;;;;;1999.90;999.90;;;;;;;-0.23;100.00;94001.38;5100395;28;20164;-63
2022/12/11 00:03:55;;;;;;;1999.90;999.90;;;;;;;-0.29;100.00;94008.22;5117883;28;20274;-63
2022/12/11 00:06:22;;;;;;;1999.90;999.90;;;;;;;-0.35;100.00;94015.03;5099835;28;20201;-63
2022/12/11 00:08:52;;;;;;;1999.90;999.90;;;;;;;-0.40;100.00;94023.44;5099773;28;20303;-63
2022/12/11 00:11:18;;;;;;;1999.90;999.90;;;;;;;-0.36;100.00;94021.53;5099821;28;20172;-63
2022/12/11 00:13:43;;;;;;;1999.90;999.90;;;;;;;-0.38;100.00;94021.13;5099935;28;20223;-64
2022/12/11 00:16:09;;;;;;;1999.90;999.90;;;;;;;-0.40;100.00;94021.50;5100176;28;20172;-62
2022/12/11 00:18:35;;;;;;;1999.90;999.90;;;;;;;-0.34;100.00;94025.41;5100102;28;20179;-63
2022/12/11 00:21:02;;;;;;;1999.90;999.90;;;;;;;-0.35;100.00;94031.13;5099145;28;20172;-63
2022/12/11 00:23:28;;;;;;;1999.90;999.90;;;;;;;-0.32;100.00;94035.75;5099195;28;20489;-64
2022/12/11 00:25:53;;;;;;;1999.90;999.90;;;;;;;-0.35;100.00;94033.81;5099701;28;20179;-63
2022/12/11 00:28:19;;;;;;;1999.90;999.90;;;;;;;-0.42;100.00;94044.44;5099492;28;20212;-64
2022/12/11 00:30:45;;;;;;;1999.90;999.90;;;;;;;-0.46;100.00;94049.78;5099719;28;20176;-63
2022/12/11 00:33:11;;;;;;;1999.90;999.90;;;;;;;-0.43;100.00;94045.59;5099932;28;20172;-67
2022/12/11 00:35:43;;;;;;;1999.90;999.90;;;;;;;-0.45;100.00;94042.50;5099537;28;20215;-63
2022/12/11 00:38:14;;;;;;;1999.90;999.90;;;;;;;-0.48;100.00;94048.59;5099347;28;20203;-64
2022/12/11 00:40:39;;;;;;;1999.90;999.90;;;;;;;-0.47;100.00;94050.16;5099885;28;20165;-64
2022/12/11 00:43:05;;;;;;;1999.90;999.90;;;;;;;-0.52;100.00;94053.91;5099947;28;20169;-66
2022/12/11 00:45:34;;;;;;;1999.90;999.90;;;;;;;-0.50;100.00;94061.59;5098927;28;20217;-63
2022/12/11 00:47:59;;;;;;;1999.90;999.90;;;;;;;-0.62;100.00;94059.94;5099048;28;20211;-63
2022/12/11 00:50:25;;;;;;;1999.90;999.90;;;;;;;-0.63;100.00;94062.97;5099661;28;20264;-64
2022/12/11 00:52:50;;;;;;;1999.90;999.90;;;;;;;-0.67;100.00;94072.88;5099712;28;20184;-62
2022/12/11 00:55:15;;;;;;;1999.90;999.90;;;;;;;-0.68;100.00;94060.63;5099067;28;20173;-64
2022/12/11 00:57:41;;;;;;;1999.90;999.90;;;;;;;-0.69;100.00;94064.44;5099112;28;20205;-63
2022/12/11 01:00:07;;;;;;;1999.90;999.90;;;;;;;-0.76;100.00;94059.00;5098754;28;20269;-63
2022/12/11 01:02:33;;;;;;;1999.90;999.90;;;;;;;-0.83;100.00;94074.97;5098920;28;20175;-63
2022/12/11 01:04:58;;;;;;;1999.90;999.90;;;;;;;-0.91;100.00;94081.38;5099305;28;20199;-63
2022/12/11 01:07:24;;;;;;;1999.90;999.90;;;;;;;-0.90;100.00;94075.66;5098596;28;20196;-64
2022/12/11 01:12:33;;;;;;;1999.90;999.90;;;;;;;-0.96;100.00;94087.03;5117242;28;20167;-63
2022/12/11 01:14:58;;;;;;;1999.90;999.90;;;;;;;-1.00;100.00;94091.56;5098417;28;20177;-64
2022/12/11 01:17:24;;;;;;;1999.90;999.90;;;;;;;-0.98;100.00;94094.69;5098392;28;20175;-64
2022/12/11 01:19:52;;;;;;;1999.90;999.90;;;;;;;-1.01;100.00;94095.41;5098365;28;20258;-63
2022/12/11 01:22:17;;;;;;;1999.90;999.90;;;;;;;-1.01;100.00;94090.03;5098768;28;20168;-63
2022/12/11 01:24:42;;;;;;;1999.90;999.90;;;;;;;-0.96;100.00;94092.41;5098314;28;20538;-64
2022/12/11 01:27:08;;;;;;;1999.90;999.90;;;;;;;-0.95;100.00;94091.28;5098086;28;20241;-63
2022/12/11 01:29:33;;;;;;;1999.90;999.90;;;;;;;-0.95;100.00;94093.97;5098914;28;20205;-73
2022/12/11 01:31:59;;;;;;;1999.90;999.90;;;;;;;-0.92;100.00;94093.22;5098472;28;20525;-59
2022/12/11 01:34:24;;;;;;;1999.90;999.90;;;;;;;-0.87;100.00;94100.94;5097665;28;20255;-58
2022/12/11 01:36:51;;;;;;;1999.90;999.90;;;;;;;-0.88;100.00;94099.38;5098031;28;20175;-58
2022/12/11 01:39:16;;;;;;;1999.90;999.90;;;;;;;-0.87;100.00;94099.03;5098234;28;20172;-59
2022/12/11 01:41:41;;;;;;;1999.90;999.90;;;;;;;-0.84;100.00;94095.63;5097611;28;20244;-58
2022/12/11 01:44:29;;;;;;;1999.90;999.90;;;;;;;-0.86;100.00;94102.50;5097924;28;20179;-58
2022/12/11 01:46:55;;;;;;;1999.90;999.90;;;;;;;-0.89;100.00;94097.84;5098584;28;20227;-65
2022/12/11 01:49:25;;;;;;;1999.90;999.90;;;;;;;-0.83;100.00;94099.84;5098541;28;20584;-63
2022/12/11 01:52:05;;;;;;;1999.90;999.90;;;;;;;-0.79;100.00;94097.22;5098548;28;20215;-62
2022/12/11 01:54:31;;;;;;;1999.90;999.90;;;;;;;-0.80;100.00;94109.09;5097934;28;20195;-63
2022/12/11 01:57:02;;;;;;;1999.90;999.90;;;;;;;-0.82;100.00;94114.03;5098836;28;20177;-64
2022/12/11 01:59:32;;;;;;;1999.90;999.90;;;;;;;-0.76;100.00;94107.97;5098527;28;20202;-63
2022/12/11 02:02:13;;;;;;;1999.90;999.90;;;;;;;-0.75;100.00;94108.75;5097748;28;20179;-61
2022/12/11 02:04:40;;;;;;;1999.90;999.90;;;;;;;-0.79;100.00;94119.44;5098169;28;20192;-58
2022/12/11 02:07:06;;;;;;;1999.90;999.90;;;;;;;-0.75;100.00;94114.13;5098033;28;20228;-57
2022/12/11 02:09:34;;;;;;;1999.90;999.90;;;;;;;-0.73;100.00;94122.56;5097942;28;20629;-64
2022/12/11 02:12:21;;;;;;;1999.90;999.90;;;;;;;-0.73;100.00;94117.97;5097817;28;20168;-64
2022/12/11 02:14:56;;;;;;;1999.90;999.90;;;;;;;-0.68;100.00;94116.88;5098321;28;20170;-65
2022/12/11 02:17:30;;;;;;;1999.90;999.90;;;;;;;-0.72;100.00;94108.03;5098034;28;20159;-64
2022/12/11 02:20:11;;;;;;;1999.90;999.90;;;;;;;-0.75;100.00;94108.75;5097889;28;20179;-64
2022/12/11 02:23:16;;;;;;;1999.90;999.90;;;;;;;-0.73;100.00;94117.22;5097414;28;20171;-64
2022/12/11 02:26:16;;;;;;;1999.90;999.90;;;;;;;-0.66;100.00;94114.59;5098231;28;20250;-61
2022/12/11 02:28:47;;;;;;;1999.90;999.90;;;;;;;-0.58;100.00;94119.69;5098022;28;20270;-58
2022/12/11 02:31:26;;;;;;;1999.90;999.90;;;;;;;-0.68;100.00;94127.63;5097875;28;20172;-59
2022/12/11 02:34:03;;;;;;;1999.90;999.90;;;;;;;-0.61;100.00;94125.03;5097663;28;20179;-59
2022/12/11 02:36:34;;;;;;;1999.90;999.90;;;;;;;-0.67;100.00;94127.25;5097667;28;20247;-58
2022/12/11 02:39:02;;;;;;;1999.90;999.90;;;;;;;-0.64;100.00;94125.75;5097681;28;20251;-58
2022/12/11 02:41:29;;;;;;;1999.90;999.90;;;;;;;-0.65;100.00;94126.88;5097129;28;20180;-62
2022/12/11 02:43:56;;;;;;;1999.90;999.90;;;;;;;-0.70;100.00;94136.00;5096859;28;20260;-63
2022/12/11 02:46:23;;;;;;;1999.90;999.90;;;;;;;-0.62;100.00;94124.25;5096548;28;20224;-65
2022/12/11 02:48:51;;;;;;;1999.90;999.90;;;;;;;-0.63;100.00;94124.59;5097267;28;20191;-65
2022/12/11 02:51:22;;;;;;;1999.90;999.90;;;;;;;-0.62;100.00;94134.22;5097241;28;20184;-66
2022/12/11 02:53:52;;;;;;;1999.90;999.90;;;;;;;-0.60;100.00;94135.38;5097750;28;20176;-65
2022/12/11 02:56:21;;;;;;;1999.90;999.90;;;;;;;-0.59;100.00;94133.47;5098010;28;20233;-65
2022/12/11 02:58:54;;;;;;;1999.90;999.90;;;;;;;-0.55;100.00;94131.59;5097097;28;20168;-66
2022/12/11 03:01:20;;;;;;;1999.90;999.90;;;;;;;-0.62;100.00;94137.63;5097656;28;20172;-58
2022/12/11 03:03:46;;;;;;;1999.90;999.90;;;;;;;-0.65;100.00;94135.69;5097111;28;20196;-64
2022/12/11 03:06:17;;;;;;;1999.90;999.90;;;;;;;-0.68;100.00;94143.69;5097686;28;20255;-63
2022/12/11 03:08:43;;;;;;;1999.90;999.90;;;;;;;-0.61;100.00;94151.81;5096692;28;20176;-63
2022/12/11 03:11:12;;;;;;;1999.90;999.90;;;;;;;-0.63;100.00;94148.72;5096722;28;20220;-63
2022/12/11 03:13:41;;;;;;;1999.90;999.90;;;;;;;-0.61;100.00;94146.47;5096887;28;20176;-62
2022/12/11 03:16:21;;;;;;;1999.90;999.90;;;;;;;-0.62;100.00;94150.28;5096795;28;20160;-63
2022/12/11 03:18:55;;;;;;;1999.90;999.90;;;;;;;-0.67;100.00;94159.41;5096822;28;20168;-62
2022/12/11 03:21:37;;;;;;;1999.90;999.90;;;;;;;-0.67;100.00;94163.97;5097729;28;20213;-62
2022/12/11 03:24:14;;;;;;;1999.90;999.90;;;;;;;-0.72;100.00;94166.97;5097044;28;20177;-61
2022/12/11 03:26:45;;;;;;;1999.90;999.90;;;;;;;-0.75;100.00;94167.69;5096742;28;20203;-62
2022/12/11 03:29:19;;;;;;;1999.90;999.90;;;;;;;-0.71;100.00;94174.66;5097401;28;20164;-61
2022/12/11 03:31:52;;;;;;;1999.90;999.90;;;;;;;-0.71;100.00;94173.88;5097511;28;20168;-61
2022/12/11 03:34:41;;;;;;;1999.90;999.90;;;;;;;-0.69;100.00;94179.66;5097347;28;20613;-62
2022/12/11 03:37:09;;;;;;;1999.90;999.90;;;;;;;-0.76;100.00;94191.03;5097499;28;20160;-59
2022/12/11 03:39:48;;;;;;;1999.90;999.90;;;;;;;-0.75;100.00;94199.84;5096873;28;20178;-65
2022/12/11 03:42:15;;;;;;;1999.90;999.90;;;;;;;-0.73;100.00;94202.97;5097067;28;20164;-61
2022/12/11 03:44:46;;;;;;;1999.90;999.90;;;;;;;-0.77;100.00;94202.09;5096262;28;20237;-62
2022/12/11 03:47:17;;;;;;;1999.90;999.90;;;;;;;-0.72;100.00;94199.13;5096636;28;20207;-62
2022/12/11 03:49:44;;;;;;;1999.90;999.90;;;;;;;-0.73;100.00;94208.31;5096600;28;20316;-61
2022/12/11 03:52:11;;;;;;;1999.90;999.90;;;;;;;-0.74;100.00;94206.75;5096462;28;20172;-61
2022/12/11 03:54:39;;;;;;;1999.90;999.90;;;;;;;-0.80;100.00;94210.88;5096527;28;20172;-61
2022/12/11 03:57:07;;;;;;;1999.90;999.90;;;;;;;-0.80;100.00;94210.88;5098659;28;20214;-58
2022/12/11 03:59:32;;;;;;;1999.90;999.90;;;;;;;-0.77;100.00;94199.44;5099993;28;20185;-65
2022/12/11 04:01:58;;;;;;;1999.90;999.90;;;;;;;-0.76;100.00;94203.69;5100196;28;20250;-65
2022/12/11 04:04:23;;;;;;;1999.90;999.90;;;;;;;-0.78;100.00;94213.97;5100175;28;20230;-65
2022/12/11 04:06:49;;;;;;;1999.90;999.90;;;;;;;-0.77;100.00;94207.47;5099830;28;20211;-65
2022/12/11 04:09:14;;;;;;;1999.90;999.90;;;;;;;-0.76;100.00;94203.69;5099911;28;20172;-66
2022/12/11 04:11:41;;;;;;;1999.90;999.90;;;;;;;-0.88;100.00;94228.75;5099881;28;20190;-65
2022/12/11 04:16:55;;;;;;;1999.90;999.90;;;;;;;-0.87;100.00;94224.19;5118292;28;20187;-65
2022/12/11 04:24:49;;;;;;;1999.90;999.90;;;;;;;-0.94;100.00;94229.41;5118010;28;20163;-65
2022/12/11 04:27:47;;;;;;;1999.90;999.90;;;;;;;-0.99;100.00;94245.78;5100017;28;20200;-65
2022/12/11 04:30:01;;;;;;;1999.90;999.90;;;;;;;-1.04;100.00;94264.84;5117160;28;20180;-64
2022/12/11 04:32:26;;;;;;;1999.90;999.90;;;;;;;-1.05;100.00;94260.63;5099469;28;20180;-63
2022/12/11 04:34:52;;;;;;;1999.90;999.90;;;;;;;-1.08;100.00;94255.97;5099477;28;20186;-64
2022/12/11 04:37:17;;;;;;;1999.90;999.90;;;;;;;-1.16;100.00;94256.97;5099462;28;20215;-65
2022/12/11 04:39:42;;;;;;;1999.90;999.90;;;;;;;-1.15;100.00;94255.84;5099404;28;20180;-64
2022/12/11 04:42:08;;;;;;;1999.90;999.90;;;;;;;-1.14;100.00;94254.72;5099172;28;20184;-64
2022/12/11 04:44:33;;;;;;;1999.90;999.90;;;;;;;-1.14;100.00;94262.75;5099179;28;20199;-64
2022/12/11 04:46:58;;;;;;;1999.90;999.90;;;;;;;-1.19;100.00;94257.69;5098811;28;20236;-64
2022/12/11 04:49:24;;;;;;;1999.90;999.90;;;;;;;-1.19;100.00;94250.44;5099518;28;20168;-64
2022/12/11 04:51:49;;;;;;;1999.90;999.90;;;;;;;-1.22;100.00;94261.88;5099635;28;20175;-64
2022/12/11 04:54:14;;;;;;;1999.90;999.90;;;;;;;-1.24;100.00;94247.28;5099489;28;20217;-63
2022/12/11 04:56:39;;;;;;;1999.90;999.90;;;;;;;-1.22;100.00;94245.00;5098962;28;20180;-64
2022/12/11 04:59:05;;;;;;;1999.90;999.90;;;;;;;-1.19;100.00;94244.31;5099393;28;20172;-64
2022/12/11 05:01:30;;;;;;;1999.90;999.90;;;;;;;-1.15;100.00;94234.44;5098514;28;20176;-64
2022/12/11 05:03:58;;;;;;;1999.90;999.90;;;;;;;-1.21;100.00;94235.84;5098629;28;20192;-65
2022/12/11 05:06:23;;;;;;;1999.90;999.90;;;;;;;-1.21;100.00;94233.16;5098649;28;20251;-64
2022/12/11 05:08:48;;;;;;;1999.90;999.90;;;;;;;-1.24;100.00;94231.97;5098165;28;20267;-65
2022/12/11 05:11:15;;;;;;;1999.90;999.90;;;;;;;-1.26;100.00;94222.78;5116915;28;20169;-63
2022/12/11 05:13:41;;;;;;;1999.90;999.90;;;;;;;-1.29;100.00;94218.91;5098652;28;20201;-59
2022/12/11 05:16:08;;;;;;;1999.90;999.90;;;;;;;-1.29;100.00;94218.91;5099240;28;20168;-60
2022/12/11 05:18:34;;;;;;;1999.90;999.90;;;;;;;-1.30;100.00;94216.59;5099078;28;20175;-61
2022/12/11 05:21:02;;;;;;;1999.90;999.90;;;;;;;-1.31;100.00;94220.41;5098735;28;20176;-61
2022/12/11 05:23:28;;;;;;;1999.90;999.90;;;;;;;-1.31;100.00;94229.19;5098487;28;20173;-61
2022/12/11 05:25:56;;;;;;;1999.90;999.90;;;;;;;-1.35;100.00;94225.69;5098416;28;20164;-60
2022/12/11 05:28:23;;;;;;;1999.90;999.90;;;;;;;-1.29;100.00;94218.91;5098306;28;20200;-64
2022/12/11 05:30:57;;;;;;;1999.90;999.90;;;;;;;-1.30;100.00;94222.72;5098242;28;20180;-65
2022/12/11 05:33:23;;;;;;;1999.90;999.90;;;;;;;-1.33;100.00;94211.94;5098168;28;20176;-64
2022/12/11 05:35:49;;;;;;;1999.90;999.90;;;;;;;-1.30;100.00;94208.56;5098273;28;20193;-65
2022/12/11 05:38:14;;;;;;;1999.90;999.90;;;;;;;-1.29;100.00;94223.47;5098272;28;20184;-65
2022/12/11 05:40:40;;;;;;;1999.90;999.90;;;;;;;-1.31;100.00;94217.72;5098286;28;20180;-64
2022/12/11 05:43:06;;;;;;;1999.90;999.90;;;;;;;-1.23;100.00;94233.56;5098191;28;20176;-64
2022/12/11 05:45:31;;;;;;;1999.90;999.90;;;;;;;-1.29;100.00;94242.22;5097802;28;20224;-63
2022/12/11 05:47:56;;;;;;;1999.90;999.90;;;;;;;-1.28;100.00;94251.81;5097747;28;20256;-62
2022/12/11 05:50:22;;;;;;;1999.90;999.90;;;;;;;-1.24;100.00;94258.00;5098626;28;20188;-74
2022/12/11 05:52:47;;;;;;;1999.90;999.90;;;;;;;-1.22;100.00;94256.50;5098037;28;20172;-75
2022/12/11 05:55:13;;;;;;;1999.90;999.90;;;;;;;-1.27;100.00;94266.75;5098012;28;20180;-74
2022/12/11 05:57:38;;;;;;;1999.90;999.90;;;;;;;-1.25;100.00;94272.50;5098540;28;20195;-71
2022/12/11 06:00:05;;;;;;;1999.90;999.90;;;;;;;-1.22;100.00;94277.16;5097830;28;20184;-73
2022/12/11 06:02:33;;;;;;;1999.90;999.90;;;;;;;-1.18;100.00;94289.47;5097463;28;20203;-71
2022/12/11 06:04:58;;;;;;;1999.90;999.90;;;;;;;-1.22;100.00;94293.22;5097454;28;20192;-62
2022/12/11 06:07:23;;;;;;;1999.90;999.90;;;;;;;-1.29;100.00;94293.06;5097284;28;20291;-60
2022/12/11 06:09:49;;;;;;;1999.90;999.90;;;;;;;-1.31;100.00;94295.34;5097655;28;20211;-59
2022/12/11 06:12:14;;;;;;;1999.90;999.90;;;;;;;-1.34;100.00;94301.41;5097863;28;20168;-59
2022/12/11 06:14:40;;;;;;;1999.90;999.90;;;;;;;-1.38;100.00;94303.25;5097320;28;20262;-58
2022/12/11 06:17:05;;;;;;;1999.90;999.90;;;;;;;-1.40;100.00;94310.84;5098129;28;20177;-59
2022/12/11 06:19:31;;;;;;;1999.90;999.90;;;;;;;-1.45;100.00;94305.78;5097411;28;20176;-59
2022/12/11 06:21:56;;;;;;;1999.90;999.90;;;;;;;-1.50;100.00;94303.38;5097611;28;20267;-58
2022/12/11 06:24:21;;;;;;;1999.90;999.90;;;;;;;-1.47;100.00;94308.03;5097430;28;20199;-65
2022/12/11 06:26:47;;;;;;;1999.90;999.90;;;;;;;-1.50;100.00;94304.16;5097412;28;20199;-64
2022/12/11 06:29:12;;;;;;;1999.90;999.90;;;;;;;-1.48;100.00;94311.84;5097670;28;20581;-63
2022/12/11 06:31:37;;;;;;;1999.90;999.90;;;;;;;-1.50;100.00;94303.38;5097955;28;20171;-64
2022/12/11 06:34:03;;;;;;;1999.90;999.90;;;;;;;-1.39;100.00;94304.34;5097320;28;20189;-63
2022/12/11 06:36:28;;;;;;;1999.90;999.90;;;;;;;-1.35;100.00;94294.50;5097108;28;20293;-63
2022/12/11 06:38:54;;;;;;;1999.90;999.90;;;;;;;-1.35;100.00;94294.50;5097785;28;20172;-66
2022/12/11 06:41:19;;;;;;;1999.90;999.90;;;;;;;-1.34;100.00;94291.47;5097290;28;20179;-61
2022/12/11 06:43:45;;;;;;;1999.90;999.90;;;;;;;-1.34;100.00;94288.78;5097165;28;20180;-65
2022/12/11 06:46:13;;;;;;;1999.90;999.90;;;;;;;-1.36;100.00;94290.28;5097037;28;20219;-65
2022/12/11 06:48:41;;;;;;;1999.90;999.90;;;;;;;-1.37;100.00;94286.06;5097714;28;20180;-66
2022/12/11 06:51:18;;;;;;;1999.90;999.90;;;;;;;-1.41;100.00;94291.34;5097703;28;20172;-65
2022/12/11 06:53:44;;;;;;;1999.90;999.90;;;;;;;-1.41;100.00;94285.22;5097543;28;20195;-65
2022/12/11 06:56:12;;;;;;;1999.90;999.90;;;;;;;-1.38;100.00;94281.84;5096732;28;20206;-65
2022/12/11 06:58:38;;;;;;;1999.90;999.90;;;;;;;-1.40;100.00;94286.75;5097014;28;20172;-66
2022/12/11 07:01:12;;;;;;;1999.90;999.90;;;;;;;-1.37;100.00;94281.50;5097097;28;20175;-61
2022/12/11 07:03:37;;;;;;;1999.90;999.90;;;;;;;-1.35;100.00;94278.47;5097355;28;20171;-63
2022/12/11 07:06:03;;;;;;;1999.90;999.90;;;;;;;-1.33;100.00;94276.19;5097009;28;20179;-63
2022/12/11 07:08:30;;;;;;;1999.90;999.90;;;;;;;-1.30;100.00;94276.25;5096918;28;20226;-63
2022/12/11 07:11:02;;;;;;;1999.90;999.90;;;;;;;-1.30;100.00;94278.94;5096910;28;20535;-62
2022/12/11 07:13:27;;;;;;;1999.90;999.90;;;;;;;-1.31;100.00;94274.69;5097592;28;20164;-63
2022/12/11 07:15:53;;;;;;;1999.90;999.90;;;;;;;-1.30;100.00;94273.59;5096997;28;20213;-63
2022/12/11 07:18:18;;;;;;;1999.90;999.90;;;;;;;-1.34;100.00;94269.28;5096894;28;20468;-61
2022/12/11 07:20:43;;;;;;;1999.90;999.90;;;;;;;-1.37;100.00;94270.78;5096696;28;20169;-66
2022/12/11 07:23:09;;;;;;;1999.90;999.90;;;;;;;-1.29;100.00;94266.31;5096884;28;20184;-67
2022/12/11 07:25:36;;;;;;;1999.90;999.90;;;;;;;-1.20;100.00;94264.19;5096419;28;20172;-63
2022/12/11 07:28:01;;;;;;;1999.90;999.90;;;;;;;-1.15;100.00;94271.91;5097270;28;20188;-63
2022/12/11 07:30:27;;;;;;;1999.90;999.90;;;;;;;-1.16;100.00;94276.47;5096837;28;20229;-62
2022/12/11 07:32:52;;;;;;;1999.90;999.90;;;;;;;-1.12;100.00;94263.16;5100231;28;20179;-65
2022/12/11 07:35:17;;;;;;;1999.90;999.90;;;;;;;-1.09;100.00;94260.53;5100578;28;20164;-63
2022/12/11 07:37:44;;;;;;;1999.90;999.90;;;;;;;-1.04;100.00;94267.50;5100733;28;20169;-62
2022/12/11 07:40:10;;;;;;;1999.90;999.90;;;;;;;-0.99;100.00;94253.81;5101075;28;20184;-65
2022/12/11 07:42:35;;;;;;;1999.90;999.90;;;;;;;-0.97;100.00;94262.28;5100769;28;20168;-63
2022/12/11 07:45:01;;;;;;;1999.90;999.90;;;;;;;-0.96;100.00;94264.59;5100179;28;20307;-65
2022/12/11 07:47:26;;;;;;;1999.90;999.90;;;;;;;-0.92;100.00;94253.94;5100878;28;20201;-63
2022/12/11 07:49:51;;;;;;;1999.90;999.90;;;;;;;-0.85;100.00;94252.16;5100099;28;20199;-65
2022/12/11 07:52:17;;;;;;;1999.90;999.90;;;;;;;-0.83;100.00;94257.16;5100587;28;20172;-65
2022/12/11 07:54:42;;;;;;;1999.90;999.90;;;;;;;-0.88;100.00;94254.75;5118198;28;20505;-66
2022/12/11 07:57:07;;;;;;;1999.90;999.90;;;;;;;-0.84;100.00;94256.38;5100365;28;20165;-63
2022/12/11 07:59:33;;;;;;;1999.90;999.90;;;;;;;-0.82;100.00;94264.03;5099980;28;20173;-59
2022/12/11 08:01:58;;;;;;;1999.90;999.90;;;;;;;-0.81;100.00;94261.00;5100660;28;20175;-59
2022/12/11 08:04:23;;;;;;;1999.90;999.90;;;;;;;-0.78;100.00;94262.19;5099650;28;20200;-60
2022/12/11 08:06:49;;;;;;;1999.90;999.90;;;;;;;-0.74;100.00;94276.41;5100111;28;20203;-59
2022/12/11 08:09:14;;;;;;;1999.90;999.90;;;;;;;-0.71;100.00;94278.38;5099672;28;20173;-59
2022/12/11 08:11:40;;;;;;;1999.90;999.90;;;;;;;-0.77;100.00;94285.16;5099611;28;20172;-59
2022/12/11 08:14:06;;;;;;;1999.90;999.90;;;;;;;-0.69;100.00;94284.91;5099574;28;20221;-65
2022/12/11 08:16:32;;;;;;;1999.90;999.90;;;;;;;-0.62;100.00;94295.75;5099708;28;20169;-65
2022/12/11 08:18:58;;;;;;;1999.90;999.90;;;;;;;-0.60;100.00;94293.50;5099992;28;20561;-64
2022/12/11 08:21:25;;;;;;;1999.90;999.90;;;;;;;-0.58;100.00;94295.81;5099810;28;20208;-64
2022/12/11 08:23:52;;;;;;;1999.90;999.90;;;;;;;-0.56;100.00;94298.91;5099583;28;20237;-64
2022/12/11 08:26:24;;;;;;;1999.90;999.90;;;;;;;-0.59;100.00;94302.28;5099400;28;20170;-64
2022/12/11 08:28:50;;;;;;;1999.90;999.90;;;;;;;-0.53;100.00;94301.66;5100242;28;20337;-64
2022/12/11 08:31:16;;;;;;;1999.90;999.90;;;;;;;-0.51;100.00;94306.66;5099246;28;20172;-59
2022/12/11 08:33:43;;;;;;;1999.90;999.90;;;;;;;-0.49;100.00;94310.53;5099404;28;20170;-61
2022/12/11 08:36:11;;;;;;;1999.90;999.90;;;;;;;-0.47;100.00;94329.69;5099416;28;20172;-65
2022/12/11 08:38:37;;;;;;;1999.90;999.90;;;;;;;-0.42;100.00;94336.66;5099541;28;20184;-63
2022/12/11 08:41:14;;;;;;;1999.90;999.90;;;;;;;-0.45;100.00;94343.50;5117197;28;20644;-62
2022/12/11 08:43:40;;;;;;;1999.90;999.90;;;;;;;-0.34;100.00;94332.94;5098333;28;20213;-62
2022/12/11 08:46:06;;;;;;;1999.90;999.90;;;;;;;-0.38;100.00;94348.19;5098883;28;20221;-63
2022/12/11 08:48:33;;;;;;;1999.90;999.90;;;;;;;-0.43;100.00;94361.94;5099210;28;20260;-62
2022/12/11 08:51:04;;;;;;;1999.90;999.90;;;;;;;-0.39;100.00;94358.16;5098653;28;20575;-61
2022/12/11 08:53:30;;;;;;;1999.90;999.90;;;;;;;-0.46;100.00;94363.41;5099040;28;20176;-66
2022/12/11 08:56:17;;;;;;;1999.90;999.90;;;;;;;-0.19;100.00;94356.94;5098900;28;20192;-66
2022/12/11 08:58:43;;;;;;;1999.90;999.90;;;;;;;-0.09;100.00;94363.59;5099532;28;20169;-64
2022/12/11 09:01:13;;;;;;;1999.90;999.90;;;;;;;-0.06;100.00;94370.91;5099314;28;20175;-65
2022/12/11 09:03:40;;;;;;;1999.90;999.90;;;;;;;0.02;100.00;94375.25;5098581;28;20168;-65
2022/12/11 09:06:12;;;;;;;1999.90;999.90;;;;;;;0.15;100.00;94383.88;5098558;28;20170;-66
2022/12/11 09:08:38;;;;;;;1999.90;999.90;;;;;;;0.06;100.00;94386.81;5098720;28;20209;-65
2022/12/11 09:11:06;;;;;;;1999.90;999.90;;;;;;;-0.03;100.00;94394.34;5098815;28;20176;-62
2022/12/11 09:13:31;;;;;;;1999.90;999.90;;;;;;;-0.20;100.00;94397.53;5098420;28;20176;-61
2022/12/11 09:15:57;;;;;;;1999.90;999.90;;;;;;;-0.13;100.00;94395.75;5098510;28;20172;-61
2022/12/11 09:18:23;;;;;;;1999.90;999.90;;;;;;;0.09;100.00;94399.50;5098468;28;20181;-61
2022/12/11 09:20:57;;;;;;;1999.90;999.90;;;;;;;0.22;100.00;94402.75;5098240;28;20513;-62
2022/12/11 09:23:22;;;;;;;1999.90;999.90;;;;;;;0.14;100.00;94412.59;5099141;28;20159;-62
2022/12/11 09:25:48;;;;;;;1999.90;999.90;;;;;;;0.36;100.00;94403.72;5098536;28;20237;-61
2022/12/11 09:28:13;;;;;;;1999.90;999.90;;;;;;;0.46;100.00;94405.78;5098334;28;20202;-57
2022/12/11 09:30:38;;;;;;;1999.90;999.90;;;;;;;0.37;100.00;94413.34;5098340;28;20172;-64
2022/12/11 09:33:04;;;;;;;1999.90;999.90;;;;;;;0.31;100.00;94417.47;5098509;28;20183;-65
2022/12/11 09:35:29;;;;;;;1999.90;999.90;;;;;;;0.46;100.00;94424.56;5098004;28;20180;-65
2022/12/11 09:37:54;;;;;;;1999.90;999.90;;;;;;;0.36;100.00;94430.56;5097843;28;20222;-64
2022/12/11 09:40:20;;;;;;;1999.90;999.90;;;;;;;0.42;100.00;94426.44;5097958;28;20177;-63
2022/12/11 09:42:53;;;;;;;1999.90;999.90;;;;;;;0.40;100.00;94434.06;5098555;28;20230;-65
2022/12/11 09:45:19;;;;;;;1999.90;999.90;;;;;;;0.51;100.00;94437.66;5088723;28;20619;-61
2022/12/11 09:47:49;;;;;;;1999.90;999.90;;;;;;;0.53;100.00;94430.03;5074861;28;20236;-61
2022/12/11 09:50:31;;;;;;;1999.90;999.90;;;;;;;0.61;100.00;94436.28;5075169;28;20241;-58
2022/12/11 09:52:59;;;;;;;1999.90;999.90;;;;;;;0.70;100.00;94445.63;5074511;28;20187;-59
2022/12/11 09:55:32;;;;;;;1999.90;999.90;;;;;;;0.61;100.00;94437.06;5073320;28;20173;-58
2022/12/11 09:58:17;;;;;;;1999.90;999.90;;;;;;;0.54;100.00;94434.25;5074039;28;20187;-59
2022/12/11 10:00:47;;;;;;;1999.90;999.90;;;;;;;0.57;100.00;94428.19;5073873;28;20254;-59
2022/12/11 10:03:27;;;;;;;1999.90;999.90;;;;;;;0.74;100.00;94430.34;5074062;28;20181;-60
2022/12/11 10:06:15;;;;;;;1999.90;999.90;;;;;;;0.88;100.00;94430.50;5073927;28;20197;-61
2022/12/11 10:08:50;;;;;;;1999.90;999.90;;;;;;;0.72;100.00;94426.47;5074234;28;20208;-70
2022/12/11 10:11:53;;;;;;;1999.90;999.90;;;;;;;0.51;100.00;94428.88;5074338;28;20178;-69
2022/12/11 10:14:27;;;;;;;1999.90;999.90;;;;;;;0.61;100.00;94433.59;5074703;28;20172;-67
2022/12/11 10:17:18;;;;;;;1999.90;999.90;;;;;;;0.61;100.00;94418.25;5073701;28;20206;-72
2022/12/11 10:19:44;;;;;;;1999.90;999.90;;;;;;;0.79;100.00;94426.53;5074467;28;20190;-73
2022/12/11 10:22:42;;;;;;;1999.90;999.90;;;;;;;0.69;100.00;94417.19;5073708;28;20174;-59
2022/12/11 10:25:18;;;;;;;1999.90;999.90;;;;;;;0.81;100.00;94425.06;5040647;28;20185;-63
2022/12/11 10:27:44;;;;;;;1999.90;999.90;;;;;;;0.72;100.00;94421.84;5073844;28;20199;-66
2022/12/11 10:30:24;;;;;;;1999.90;999.90;;;;;;;0.78;100.00;94419.63;5074428;28;20182;-61
2022/12/11 10:32:51;;;;;;;1999.90;999.90;;;;;;;0.73;100.00;94423.38;5073745;28;20255;-61
2022/12/11 10:35:40;;;;;;;1999.90;999.90;;;;;;;0.70;100.00;94429.50;5073677;28;20189;-64
2022/12/11 10:38:30;;;;;;;1999.90;999.90;;;;;;;0.49;100.00;94423.84;5068047;28;20203;-64
2022/12/11 10:41:03;;;;;;;1999.90;999.90;;;;;;;0.38;100.00;94422.94;5066040;28;20270;-61
2022/12/11 10:43:38;;;;;;;1999.90;999.90;;;;;;;0.49;100.00;94418.47;5073636;28;20270;-63
2022/12/11 10:46:06;;;;;;;1999.90;999.90;;;;;;;0.73;100.00;94406.53;5073451;28;20327;-65
2022/12/11 10:48:32;;;;;;;1999.90;999.90;;;;;;;0.61;100.00;94406.75;5073110;28;20206;-62
2022/12/11 10:51:04;;;;;;;1999.90;999.90;;;;;;;0.70;100.00;94407.25;5073639;28;20231;-63
2022/12/11 10:53:32;;;;;;;1999.90;999.90;;;;;;;0.47;100.00;94420.75;5073371;28;20179;-65
2022/12/11 10:55:59;;;;;;;1999.90;999.90;;;;;;;0.33;100.00;94409.84;5073375;28;20175;-65
2022/12/11 10:59:44;;;;;;;1999.90;999.90;;;;;;;0.28;100.00;94398.63;5072632;28;20512;-68
2022/12/11 11:02:24;;;;;;;1999.90;999.90;;;;;;;0.32;100.00;94396.78;5071390;28;20176;-66
2022/12/11 11:04:50;;;;;;;1999.90;999.90;;;;;;;0.37;100.00;94399.91;5071073;28;20206;-66
2022/12/11 11:07:22;;;;;;;1999.90;999.90;;;;;;;0.56;100.00;94390.94;5070483;28;20210;-65